createdAt,value
2022-10-20T00:01:18.054Z,58.70
2022-10-20T00:03:44.504Z,58.70
2022-10-20T00:06:10.932Z,59.30
2022-10-20T00:08:37.406Z,59.10
2022-10-20T00:11:03.847Z,58.40
2022-10-20T00:13:30.268Z,59.00
2022-10-20T00:15:56.687Z,59.10
2022-10-20T00:18:23.107Z,59.00
2022-10-20T00:20:49.533Z,58.30
2022-10-20T00:23:15.965Z,58.90
2022-10-20T00:25:42.393Z,58.40
2022-10-20T00:28:08.840Z,58.90
2022-10-20T00:30:35.280Z,58.90
2022-10-20T00:33:01.708Z,58.20
2022-10-20T00:35:28.160Z,59.00
2022-10-20T00:37:54.596Z,58.80
2022-10-20T00:40:21.054Z,58.90
2022-10-20T00:42:47.471Z,58.30
2022-10-20T00:45:13.891Z,58.90
2022-10-20T00:47:40.409Z,58.80
2022-10-20T00:50:06.893Z,58.90
2022-10-20T00:52:33.553Z,58.20
2022-10-20T00:55:00.155Z,58.80
2022-10-20T00:57:26.591Z,59.00
2022-10-20T00:59:53.036Z,58.90
2022-10-20T01:02:19.466Z,58.30
2022-10-20T01:04:45.899Z,58.90
2022-10-20T01:07:12.320Z,58.80
2022-10-20T01:09:38.728Z,58.80
2022-10-20T01:12:05.152Z,58.30
2022-10-20T01:14:31.578Z,58.80
2022-10-20T01:16:57.999Z,58.80
2022-10-20T01:19:24.444Z,58.80
2022-10-20T01:21:50.861Z,58.20
2022-10-20T01:24:17.354Z,58.80
2022-10-20T01:26:43.831Z,58.80
2022-10-20T01:29:10.251Z,58.70
2022-10-20T01:31:36.692Z,58.30
2022-10-20T01:34:03.140Z,58.80
2022-10-20T01:36:29.579Z,58.70
2022-10-20T01:38:56.024Z,58.80
2022-10-20T01:41:22.440Z,58.30
2022-10-20T01:43:48.885Z,58.70
2022-10-20T01:46:15.317Z,58.80
2022-10-20T01:48:41.737Z,58.80
2022-10-20T01:51:08.160Z,58.20
2022-10-20T01:53:34.579Z,58.70
2022-10-20T01:56:01.010Z,58.70
2022-10-20T01:58:27.463Z,58.70
2022-10-20T02:00:54.019Z,58.20
2022-10-20T02:03:20.500Z,58.80
2022-10-20T02:05:46.940Z,58.70
2022-10-20T02:08:13.357Z,58.60
2022-10-20T02:10:39.805Z,58.10
2022-10-20T02:13:06.231Z,58.60
2022-10-20T02:15:32.653Z,58.60
2022-10-20T02:17:59.081Z,58.60
2022-10-20T02:20:25.495Z,58.60
2022-10-20T02:22:51.937Z,57.90
2022-10-20T02:25:18.349Z,58.60
2022-10-20T02:27:44.779Z,58.50
2022-10-20T02:30:11.196Z,58.50
2022-10-20T02:32:38.155Z,57.90
2022-10-20T02:35:06.773Z,58.00
2022-10-20T02:37:33.786Z,58.40
2022-10-20T02:40:00.439Z,58.40
2022-10-20T02:42:26.864Z,57.90
2022-10-20T02:44:53.304Z,58.50
2022-10-20T02:47:19.745Z,58.40
2022-10-20T02:49:46.180Z,58.40
2022-10-20T02:52:12.625Z,57.70
2022-10-20T02:54:39.086Z,58.40
2022-10-20T02:57:05.525Z,58.40
2022-10-20T02:59:31.958Z,58.40
2022-10-20T03:01:58.457Z,57.80
2022-10-20T03:06:52.255Z,58.30
2022-10-20T03:09:18.663Z,58.40
2022-10-20T03:11:45.099Z,57.80
2022-10-20T03:14:11.523Z,58.30
2022-10-20T03:16:37.943Z,58.30
2022-10-20T03:19:07.162Z,58.30
2022-10-20T03:21:34.621Z,57.60
2022-10-20T03:24:01.054Z,58.20
2022-10-20T03:26:27.484Z,58.10
2022-10-20T03:28:53.925Z,58.10
2022-10-20T03:31:20.373Z,57.60
2022-10-20T03:33:46.818Z,58.10
2022-10-20T03:36:13.325Z,58.00
2022-10-20T03:38:39.744Z,58.10
2022-10-20T03:41:06.183Z,57.50
2022-10-20T03:43:32.613Z,58.10
2022-10-20T03:45:59.027Z,58.10
2022-10-20T03:48:25.443Z,57.50
2022-10-20T03:50:51.889Z,57.60
2022-10-20T03:53:18.316Z,58.10
2022-10-20T03:55:44.758Z,58.10
2022-10-20T03:58:11.223Z,58.00
2022-10-20T04:00:37.651Z,58.10
2022-10-20T04:03:04.097Z,57.60
2022-10-20T04:05:30.522Z,58.10
2022-10-20T04:07:56.969Z,58.10
2022-10-20T04:10:23.415Z,58.10
2022-10-20T04:12:49.837Z,57.60
2022-10-20T04:15:16.281Z,58.10
2022-10-20T04:17:42.709Z,58.00
2022-10-20T04:20:09.196Z,58.00
2022-10-20T04:22:35.828Z,57.40
2022-10-20T04:25:02.409Z,58.00
2022-10-20T04:27:28.832Z,58.10
2022-10-20T04:29:55.275Z,58.00
2022-10-20T04:32:21.702Z,57.40
2022-10-20T04:34:48.153Z,57.90
2022-10-20T04:37:14.612Z,57.90
2022-10-20T04:39:41.031Z,57.90
2022-10-20T04:42:07.530Z,57.40
2022-10-20T04:44:33.976Z,58.10
2022-10-20T04:47:00.466Z,57.40
2022-10-20T04:49:26.942Z,58.00
2022-10-20T04:51:56.335Z,57.90
2022-10-20T04:54:25.145Z,57.40
2022-10-20T04:56:51.590Z,57.40
2022-10-20T04:59:18.009Z,58.00
2022-10-20T05:01:44.526Z,57.50
2022-10-20T05:04:10.982Z,57.40
2022-10-20T05:06:37.414Z,57.40
2022-10-20T05:09:03.928Z,57.60
2022-10-20T05:11:30.404Z,58.00
2022-10-20T05:13:56.814Z,58.00
2022-10-20T05:16:23.238Z,58.00
2022-10-20T05:18:49.658Z,57.40
2022-10-20T05:21:16.127Z,58.00
2022-10-20T05:23:42.558Z,57.50
2022-10-20T05:26:08.979Z,58.10
2022-10-20T05:28:35.397Z,57.50
2022-10-20T05:31:01.883Z,58.10
2022-10-20T05:33:28.301Z,58.00
2022-10-20T05:35:54.724Z,58.00
2022-10-20T05:38:21.152Z,57.50
2022-10-20T05:40:47.595Z,57.40
2022-10-20T05:43:15.877Z,57.90
2022-10-20T05:45:42.450Z,57.90
2022-10-20T05:48:08.875Z,57.40
2022-10-20T05:50:35.370Z,58.00
2022-10-20T05:53:01.859Z,58.00
2022-10-20T05:55:28.278Z,57.90
2022-10-20T05:57:54.708Z,57.30
2022-10-20T06:00:21.129Z,57.90
2022-10-20T06:02:47.578Z,57.90
2022-10-20T06:05:14.004Z,55.60
2022-10-20T06:07:40.460Z,57.30
2022-10-20T06:10:06.886Z,57.80
2022-10-20T06:12:33.566Z,57.90
2022-10-20T06:15:00.165Z,58.00
2022-10-20T06:17:26.596Z,57.40
2022-10-20T06:19:53.882Z,57.90
2022-10-20T06:22:20.305Z,57.90
2022-10-20T06:24:46.754Z,57.90
2022-10-20T06:27:13.174Z,57.30
2022-10-20T06:29:39.605Z,57.70
2022-10-20T06:32:06.091Z,57.70
2022-10-20T06:34:32.532Z,57.30
2022-10-20T06:36:59.047Z,57.40
2022-10-20T06:39:25.506Z,57.90
2022-10-20T06:41:51.929Z,57.90
2022-10-20T06:44:18.347Z,57.90
2022-10-20T06:46:44.764Z,57.40
2022-10-20T06:49:11.198Z,57.90
2022-10-20T06:51:37.640Z,57.80
2022-10-20T06:54:04.091Z,57.80
2022-10-20T06:56:30.511Z,57.80
2022-10-20T06:58:56.928Z,57.30
2022-10-20T07:01:23.483Z,57.80
2022-10-20T07:03:50.001Z,57.80
2022-10-20T07:06:16.436Z,57.30
2022-10-20T07:08:42.902Z,57.50
2022-10-20T07:11:09.350Z,57.30
2022-10-20T07:13:35.789Z,57.80
2022-10-20T07:16:02.209Z,57.80
2022-10-20T07:18:28.651Z,57.40
2022-10-20T07:20:55.079Z,57.90
2022-10-20T07:23:21.506Z,57.80
2022-10-20T07:25:47.950Z,57.70
2022-10-20T07:28:14.369Z,57.10
2022-10-20T07:30:40.845Z,57.60
2022-10-20T07:33:07.289Z,57.50
2022-10-20T07:35:33.731Z,57.00
2022-10-20T07:38:00.156Z,57.00
2022-10-20T07:40:26.613Z,57.40
2022-10-20T07:42:53.032Z,57.60
2022-10-20T07:45:19.453Z,57.60
2022-10-20T07:47:47.690Z,57.10
2022-10-20T07:50:14.231Z,57.10
2022-10-20T07:52:40.649Z,57.70
2022-10-20T07:55:18.028Z,57.70
2022-10-20T07:57:53.512Z,57.20
2022-10-20T08:00:19.944Z,57.20
2022-10-20T08:02:46.371Z,57.10
2022-10-20T08:05:12.819Z,57.50
2022-10-20T08:07:39.241Z,57.00
2022-10-20T08:10:05.668Z,57.00
2022-10-20T08:12:32.098Z,57.60
2022-10-20T08:14:58.564Z,57.10
2022-10-20T08:17:29.007Z,57.20
2022-10-20T08:20:10.579Z,57.20
2022-10-20T08:22:37.385Z,57.80
2022-10-20T08:25:04.040Z,57.40
2022-10-20T08:27:30.453Z,57.50
2022-10-20T08:30:12.316Z,58.00
2022-10-20T08:32:43.278Z,57.50
2022-10-20T08:35:09.704Z,57.90
2022-10-20T08:37:36.394Z,57.50
2022-10-20T08:40:03.095Z,58.00
2022-10-20T08:42:29.508Z,58.00
2022-10-20T08:44:55.927Z,57.60
2022-10-20T08:47:22.361Z,57.80
2022-10-20T08:49:48.797Z,59.00
2022-10-20T08:52:15.242Z,57.90
2022-10-20T08:54:41.665Z,58.60
2022-10-20T08:57:08.095Z,58.40
2022-10-20T08:59:34.530Z,58.90
2022-10-20T09:02:00.996Z,58.20
2022-10-20T09:04:27.477Z,58.80
2022-10-20T09:06:53.934Z,58.40
2022-10-20T09:09:20.361Z,59.10
2022-10-20T09:11:46.793Z,59.10
2022-10-20T09:14:13.242Z,59.20
2022-10-20T09:16:55.431Z,58.90
2022-10-20T09:19:26.057Z,58.50
2022-10-20T09:21:52.483Z,59.20
2022-10-20T09:24:18.921Z,58.40
2022-10-20T09:26:58.138Z,58.60
2022-10-20T09:29:25.453Z,59.10
2022-10-20T09:31:51.883Z,59.30
2022-10-20T09:34:18.301Z,59.00
2022-10-20T09:36:44.730Z,58.60
2022-10-20T09:39:11.148Z,59.10
2022-10-20T09:41:37.556Z,59.30
2022-10-20T09:44:03.972Z,59.10
2022-10-20T09:46:30.447Z,59.10
2022-10-20T09:48:56.875Z,58.80
2022-10-20T09:51:23.303Z,59.20
2022-10-20T09:53:49.730Z,59.10
2022-10-20T09:56:16.179Z,58.80
2022-10-20T09:58:42.605Z,58.30
2022-10-20T10:01:09.078Z,58.90
2022-10-20T10:03:35.561Z,58.80
2022-10-20T10:06:02.035Z,58.50
2022-10-20T10:08:28.522Z,57.90
2022-10-20T10:10:54.990Z,58.60
2022-10-20T10:13:23.972Z,58.30
2022-10-20T10:15:51.434Z,58.30
2022-10-20T10:18:17.874Z,57.70
2022-10-20T10:20:44.298Z,58.60
2022-10-20T10:23:10.745Z,58.50
2022-10-20T10:25:37.172Z,58.30
2022-10-20T10:28:03.605Z,57.90
2022-10-20T10:30:30.046Z,58.50
2022-10-20T10:32:56.479Z,58.40
2022-10-20T10:35:22.930Z,58.60
2022-10-20T10:37:49.349Z,57.90
2022-10-20T10:40:15.793Z,58.30
2022-10-20T10:42:42.228Z,58.30
2022-10-20T10:45:08.656Z,58.20
2022-10-20T10:47:37.815Z,57.50
2022-10-20T10:50:06.672Z,57.70
2022-10-20T10:52:33.134Z,58.30
2022-10-20T10:54:59.560Z,58.20
2022-10-20T10:57:25.999Z,58.00
2022-10-20T10:59:52.409Z,58.60
2022-10-20T11:02:18.849Z,58.80
2022-10-20T11:04:45.278Z,58.30
2022-10-20T11:07:11.692Z,58.50
2022-10-20T11:09:38.122Z,58.70
2022-10-20T11:12:04.585Z,58.00
2022-10-20T11:14:31.028Z,58.00
2022-10-20T11:16:57.440Z,58.10
2022-10-20T11:19:23.939Z,58.40
2022-10-20T11:21:50.369Z,58.50
2022-10-20T11:24:16.804Z,58.50
2022-10-20T11:26:43.245Z,58.10
2022-10-20T11:29:09.676Z,58.60
2022-10-20T11:31:36.107Z,58.60
2022-10-20T11:34:02.563Z,58.60
2022-10-20T11:36:28.993Z,58.50
2022-10-20T11:38:55.423Z,58.00
2022-10-20T11:41:21.841Z,58.70
2022-10-20T11:43:48.270Z,58.00
2022-10-20T11:46:14.721Z,58.50
2022-10-20T11:48:41.166Z,58.00
2022-10-20T11:51:07.605Z,58.50
2022-10-20T11:53:34.034Z,58.00
2022-10-20T11:56:00.453Z,58.70
2022-10-20T11:58:26.893Z,58.30
2022-10-20T12:00:55.188Z,58.60
2022-10-20T12:03:24.066Z,58.20
2022-10-20T12:05:50.484Z,58.70
2022-10-20T12:08:29.433Z,58.20
2022-10-20T12:10:56.880Z,58.20
2022-10-20T12:13:23.299Z,58.20
2022-10-20T12:15:49.746Z,58.90
2022-10-20T12:18:16.162Z,58.40
2022-10-20T12:20:42.632Z,58.40
2022-10-20T12:23:09.051Z,58.90
2022-10-20T12:25:35.494Z,58.70
2022-10-20T12:28:01.937Z,58.30
2022-10-20T12:30:28.382Z,58.90
2022-10-20T12:32:54.800Z,59.00
2022-10-20T12:35:21.226Z,59.00
2022-10-20T12:37:47.981Z,58.60
2022-10-20T12:40:14.742Z,58.50
2022-10-20T12:42:41.168Z,58.90
2022-10-20T12:45:07.597Z,58.50
2022-10-20T12:47:34.237Z,58.60
2022-10-20T12:50:00.894Z,59.10
2022-10-20T12:52:27.321Z,58.90
2022-10-20T12:54:53.749Z,59.00
2022-10-20T12:57:20.165Z,58.50
2022-10-20T12:59:46.599Z,58.90
2022-10-20T13:02:13.036Z,58.90
2022-10-20T13:04:41.932Z,58.20
2022-10-20T13:07:11.113Z,58.20
2022-10-20T13:09:37.526Z,58.70
2022-10-20T13:12:03.953Z,58.80
2022-10-20T13:14:30.374Z,58.80
2022-10-20T13:16:56.795Z,58.40
2022-10-20T13:19:23.263Z,59.00
2022-10-20T13:21:49.952Z,58.90
2022-10-20T13:24:16.401Z,58.90
2022-10-20T13:29:09.819Z,58.40
2022-10-20T13:31:36.237Z,59.80
2022-10-20T13:34:04.981Z,59.00
2022-10-20T13:36:32.075Z,59.00
2022-10-20T13:38:58.501Z,58.40
2022-10-20T13:41:24.952Z,59.00
2022-10-20T13:43:56.682Z,58.80
2022-10-20T13:46:24.654Z,58.80
2022-10-20T13:48:51.090Z,58.20
2022-10-20T13:51:19.873Z,58.90
2022-10-20T13:53:47.325Z,58.90
2022-10-20T13:56:13.743Z,58.80
2022-10-20T13:58:40.166Z,58.40
2022-10-20T14:01:06.694Z,59.00
2022-10-20T14:03:33.193Z,59.20
2022-10-20T14:05:59.636Z,59.60
2022-10-20T14:08:26.191Z,59.20
2022-10-20T14:10:52.685Z,59.90
2022-10-20T14:13:19.104Z,60.00
2022-10-20T14:15:45.545Z,59.90
2022-10-20T14:18:11.986Z,59.30
2022-10-20T14:20:38.410Z,59.50
2022-10-20T14:23:04.845Z,59.90
2022-10-20T14:25:31.279Z,59.30
2022-10-20T14:27:57.741Z,59.10
2022-10-20T14:30:24.166Z,59.70
2022-10-20T14:32:50.611Z,59.30
2022-10-20T14:35:17.038Z,59.60
2022-10-20T14:37:43.476Z,59.20
2022-10-20T14:40:09.921Z,58.80
2022-10-20T14:42:36.345Z,58.90
2022-10-20T14:45:02.772Z,59.20
2022-10-20T14:47:29.206Z,59.00
2022-10-20T14:49:55.643Z,59.50
2022-10-20T14:52:22.304Z,59.90
2022-10-20T14:54:48.776Z,59.80
2022-10-20T14:57:15.214Z,59.30
2022-10-20T14:59:41.684Z,59.10
2022-10-20T15:02:08.123Z,59.10
2022-10-20T15:04:36.217Z,58.90
2022-10-20T15:07:02.908Z,59.00
2022-10-20T15:09:29.337Z,59.50
2022-10-20T15:11:55.778Z,59.50
2022-10-20T15:14:22.214Z,59.50
2022-10-20T15:16:48.644Z,59.00
2022-10-20T15:19:15.069Z,59.50
2022-10-20T15:21:41.494Z,59.50
2022-10-20T15:24:07.918Z,59.40
2022-10-20T15:26:34.347Z,59.40
2022-10-20T15:29:00.764Z,58.80
2022-10-20T15:31:27.268Z,59.40
2022-10-20T15:33:53.770Z,58.80
2022-10-20T15:36:20.203Z,58.80
2022-10-20T15:38:46.620Z,58.70
2022-10-20T15:41:13.044Z,58.80
2022-10-20T15:43:39.474Z,59.00
2022-10-20T15:46:05.902Z,58.90
2022-10-20T15:48:32.328Z,59.00
2022-10-20T15:50:58.748Z,59.30
2022-10-20T15:53:25.176Z,59.30
2022-10-20T15:55:51.592Z,59.30
2022-10-20T15:58:18.006Z,58.70
2022-10-20T16:00:44.476Z,59.30
2022-10-20T16:03:10.925Z,58.80
2022-10-20T16:05:37.354Z,58.80
2022-10-20T16:08:03.820Z,59.30
2022-10-20T16:10:30.279Z,59.70
2022-10-20T16:12:56.710Z,59.90
2022-10-20T16:15:25.494Z,59.40
2022-10-20T16:17:55.123Z,59.30
2022-10-20T16:20:21.540Z,59.70
2022-10-20T16:22:47.991Z,59.90
2022-10-20T16:25:14.422Z,59.80
2022-10-20T16:27:40.872Z,59.40
2022-10-20T16:30:07.303Z,59.60
2022-10-20T16:32:35.326Z,59.70
2022-10-20T16:35:02.012Z,59.00
2022-10-20T16:37:28.449Z,59.00
2022-10-20T16:39:54.863Z,58.90
2022-10-20T16:42:21.298Z,58.90
2022-10-20T16:44:47.764Z,59.10
2022-10-20T16:47:14.190Z,59.10
2022-10-20T16:49:40.630Z,59.60
2022-10-20T16:52:07.065Z,59.80
2022-10-20T16:54:33.549Z,59.70
2022-10-20T16:56:59.995Z,59.30
2022-10-20T16:59:26.448Z,59.80
2022-10-20T17:01:52.878Z,59.80
2022-10-20T17:04:19.325Z,59.80
2022-10-20T17:06:45.799Z,59.30
2022-10-20T17:09:12.278Z,59.80
2022-10-20T17:11:38.745Z,59.20
2022-10-20T17:14:05.158Z,59.40
2022-10-20T17:16:31.632Z,59.30
2022-10-20T17:18:58.083Z,59.40
2022-10-20T17:21:24.520Z,59.60
2022-10-20T17:23:50.941Z,59.80
2022-10-20T17:26:17.373Z,59.80
2022-10-20T17:28:43.825Z,59.50
2022-10-20T17:31:10.290Z,59.90
2022-10-20T17:33:36.772Z,60.00
2022-10-20T17:36:03.194Z,60.10
2022-10-20T17:38:29.619Z,59.30
2022-10-20T17:40:56.050Z,60.10
2022-10-20T17:43:22.472Z,60.00
2022-10-20T17:45:48.923Z,60.00
2022-10-20T17:48:15.348Z,59.40
2022-10-20T17:50:41.774Z,59.80
2022-10-20T17:53:08.192Z,59.70
2022-10-20T17:55:34.618Z,59.70
2022-10-20T17:58:05.583Z,59.20
2022-10-20T18:00:54.913Z,59.60
2022-10-20T18:03:18.691Z,59.90
2022-10-20T18:05:45.137Z,59.60
2022-10-20T18:08:11.567Z,59.20
2022-10-20T18:10:39.149Z,59.90
2022-10-20T18:13:07.924Z,59.20
2022-10-20T18:15:34.336Z,59.70
2022-10-20T18:18:00.761Z,59.40
2022-10-20T18:20:28.733Z,60.20
2022-10-20T18:22:57.232Z,59.80
2022-10-20T18:25:23.673Z,59.70
2022-10-20T18:27:50.155Z,59.30
2022-10-20T18:30:16.584Z,59.80
2022-10-20T18:32:43.003Z,59.60
2022-10-20T18:35:09.490Z,59.90
2022-10-20T18:37:36.274Z,59.50
2022-10-20T18:40:02.926Z,59.90
2022-10-20T18:42:29.350Z,59.80
2022-10-20T18:44:55.770Z,60.00
2022-10-20T18:47:22.197Z,59.60
2022-10-20T18:49:48.611Z,60.10
2022-10-20T18:52:15.057Z,60.30
2022-10-20T18:54:41.521Z,60.10
2022-10-20T18:57:07.948Z,59.50
2022-10-20T18:59:34.380Z,60.20
2022-10-20T19:02:00.804Z,60.00
2022-10-20T19:04:27.258Z,60.10
2022-10-20T19:06:53.671Z,59.40
2022-10-20T19:09:20.103Z,60.00
2022-10-20T19:11:46.666Z,59.90
2022-10-20T19:14:13.135Z,60.00
2022-10-20T19:16:39.589Z,60.10
2022-10-20T19:19:06.011Z,59.50
2022-10-20T19:21:32.441Z,60.10
2022-10-20T19:23:58.867Z,60.10
2022-10-20T19:26:25.281Z,60.00
2022-10-20T19:28:56.084Z,59.40
2022-10-20T19:31:24.785Z,59.60
2022-10-20T19:33:51.225Z,60.10
2022-10-20T19:36:17.666Z,60.20
2022-10-20T19:38:44.106Z,59.70
2022-10-20T19:41:10.533Z,60.20
2022-10-20T19:43:36.959Z,60.20
2022-10-20T19:46:03.399Z,59.60
2022-10-20T19:48:29.821Z,59.60
2022-10-20T19:50:56.242Z,60.20
2022-10-20T19:53:22.660Z,59.60
2022-10-20T19:55:49.107Z,59.50
2022-10-20T19:58:15.553Z,59.50
2022-10-20T20:00:42.026Z,60.00
2022-10-20T20:03:08.486Z,60.00
2022-10-20T20:05:34.907Z,60.00
2022-10-20T20:08:01.374Z,59.50
2022-10-20T20:10:27.792Z,60.00
2022-10-20T20:12:54.250Z,60.00
2022-10-20T20:15:20.659Z,60.10
2022-10-20T20:17:47.087Z,59.40
2022-10-20T20:20:13.519Z,60.00
2022-10-20T20:22:39.933Z,60.00
2022-10-20T20:25:06.370Z,59.40
2022-10-20T20:27:32.820Z,59.40
2022-10-20T20:29:59.243Z,60.00
2022-10-20T20:32:25.648Z,59.90
2022-10-20T20:34:52.104Z,60.00
2022-10-20T20:37:18.543Z,59.60
2022-10-20T20:39:44.963Z,60.00
2022-10-20T20:42:11.429Z,60.00
2022-10-20T20:44:37.853Z,59.90
2022-10-20T20:47:04.291Z,59.40
2022-10-20T20:49:30.718Z,59.90
2022-10-20T20:51:57.152Z,60.00
2022-10-20T20:54:23.597Z,60.00
2022-10-20T20:56:50.038Z,59.50
2022-10-20T20:59:16.470Z,60.00
2022-10-20T21:01:42.893Z,60.00
2022-10-20T21:04:09.334Z,59.90
2022-10-20T21:07:00.351Z,59.90
2022-10-20T21:09:22.191Z,59.40
2022-10-20T21:11:48.620Z,60.00
2022-10-20T21:14:15.042Z,60.00
2022-10-20T21:16:41.482Z,60.00
2022-10-20T21:19:07.919Z,59.50
2022-10-20T21:21:34.360Z,60.00
2022-10-20T21:24:00.809Z,60.00
2022-10-20T21:26:27.240Z,60.00
2022-10-20T21:28:53.663Z,59.50
2022-10-20T21:31:20.079Z,60.20
2022-10-20T21:33:46.531Z,60.10
2022-10-20T21:36:12.960Z,60.00
2022-10-20T21:38:39.400Z,59.50
2022-10-20T21:41:05.823Z,60.10
2022-10-20T21:43:32.246Z,60.10
2022-10-20T21:45:58.667Z,60.00
2022-10-20T21:48:25.154Z,59.60
2022-10-20T21:50:51.597Z,60.00
2022-10-20T21:53:18.029Z,59.50
2022-10-20T21:55:44.443Z,60.10
2022-10-20T21:58:10.865Z,59.50
2022-10-20T22:00:37.417Z,60.00
2022-10-20T22:03:03.939Z,59.90
2022-10-20T22:05:30.378Z,60.00
2022-10-20T22:07:56.818Z,59.50
2022-10-20T22:10:23.243Z,60.00
2022-10-20T22:12:49.675Z,60.00
2022-10-20T22:15:16.089Z,60.00
2022-10-20T22:17:42.594Z,59.50
2022-10-20T22:20:09.017Z,60.00
2022-10-20T22:22:35.754Z,60.00
2022-10-20T22:25:02.378Z,60.00
2022-10-20T22:27:41.835Z,59.50
2022-10-20T22:30:08.905Z,60.00
2022-10-20T22:32:35.685Z,60.10
2022-10-20T22:35:02.373Z,60.00
2022-10-20T22:37:28.785Z,59.50
2022-10-20T22:39:55.214Z,60.00
2022-10-20T22:42:24.061Z,60.00
2022-10-20T22:44:51.393Z,60.00
2022-10-20T22:47:17.824Z,59.40
2022-10-20T22:49:44.257Z,59.90
2022-10-20T22:52:10.681Z,60.00
2022-10-20T22:54:37.125Z,60.00
2022-10-20T22:57:03.550Z,59.40
2022-10-20T22:59:29.977Z,59.90
2022-10-20T23:01:56.390Z,59.90
2022-10-20T23:04:22.810Z,60.00
2022-10-20T23:06:49.275Z,59.50
2022-10-20T23:09:15.773Z,60.00
2022-10-20T23:11:42.274Z,60.00
2022-10-20T23:14:08.701Z,60.00
2022-10-20T23:16:35.158Z,60.00
2022-10-20T23:19:01.574Z,59.50
2022-10-20T23:21:27.992Z,59.50
2022-10-20T23:23:54.411Z,60.00
2022-10-20T23:26:20.843Z,60.00
2022-10-20T23:28:47.298Z,59.50
2022-10-20T23:31:13.738Z,59.50
2022-10-20T23:33:40.176Z,60.00
2022-10-20T23:36:06.599Z,59.40
2022-10-20T23:38:33.035Z,59.40
2022-10-20T23:40:59.450Z,59.40
2022-10-20T23:43:25.948Z,60.00
2022-10-20T23:45:52.469Z,60.00
2022-10-20T23:48:18.893Z,59.40
2022-10-20T23:50:45.311Z,59.90
2022-10-20T23:53:11.728Z,60.00
2022-10-20T23:55:38.172Z,60.00
2022-10-20T23:58:04.592Z,59.50
